Hereford, AZ (85615)

8:32 PM MST on July 04, 2015 (GMT -0700)
Three Canyons Ranch | | Change Station
CLOSE
Current Station
Personal Weather Station
Location: Hereford, AZ
Elevation: 4551 ft
Nearby Weather Stations

Elev 4551 ft 31.40 °N, 110.19 °W | Updated 50 seconds ago

Overcast
Overcast
78.1 °F
Feels Like 79 °F
N
4.0
Wind Variable Wind from NW
Gusts 4.0 mph

Today
High -- | Low -- °F
--% Chance of Precip.
Yesterday
High -- | Low -- °F
Precip. -- in
5:21 AM 7:29 PM
Waning Gibbous, 88% visible
Pressure 29.86 in
Visibility 10.0 miles
Clouds Mostly Cloudy 10000 ft
Overcast 14000 ft
Heat Index 79 °F
Dew Point 59 °F
Humidity 52%
Rainfall 0.25 in
Snow Depth Not available.
UV 0 out of 12
Pollen 3.60 out of 12
Air Quality Not available.
Flu Activity Not available.
METAR KFHU 050258Z AUTO 28008KT 10SM BKN100 OVC140 26/12 A3008 RMK AO2 LTG DSNT E-SE SLP112 T02620119 53011

More Conditions Fewer Conditions

Pressure 29.86 in
Visibility 10.0 miles
Clouds Mostly Cloudy 10000 ft
Overcast 14000 ft
Heat Index 79 °F
Dew Point 59 °F
Humidity 52%
Rainfall 0.25 in
Snow Depth Not available.
UV 0 out of 12
Pollen 3.60 out of 12
Air Quality Not available.
Flu Activity Not available.
METAR KFHU 050258Z AUTO 28008KT 10SM BKN100 OVC140 26/12 A3008 RMK AO2 LTG DSNT E-SE SLP112 T02620119 53011

More Conditions Fewer Conditions

10-Day Weather Forecast

×

Almanac

Astronomy

Jul. 04, 2015 Rise Set
Actual Time
Civil Twilight
Nautical Twilight
Astronomical Twilight
Moon
Length of Visible Light
Length of Day
Tomorrow will be .
, % of the Moon is Illuminated

Today's Extremes

State Highs State Lows

Community

WunderPhotos

Upload Photos

1,835,182 photos uploaded!

WunderBlogs® & News

Nearby

Air Quality

  Air Quality AQ Index Pollutant
Not available.

Snow Depth

Station Depth Elevation

Earthquake Activity

City Distance Mag. Time & Date
Minimum magnitude displayed is 2.5.

Coastal Water Temperatures

Place Temperature

Stations

Nearby Weather Stations

Station Location Temp. Windchill Dew Point Humidity Wind Precip. Elev Updated Type